Time,TemperatureF,DewpointF,PressureIn,WindDirection,WindDirectionDegrees,WindSpeedMPH,WindSpeedGustMPH,Humidity,HourlyPrecipIn,Conditions,Clouds,dailyrainin,SoftwareType,DateUTC
2013-09-07 00:00:00,66.2,57.7,29.92,SSW,207,2.0,3.0,74,0.00,,OVC055,0.00,VWS V14.01,2013-09-07 04:00:00,
2013-09-07 00:01:00,66.2,57.3,29.92,SW,217,2.0,2.0,73,0.00,,OVC055,0.00,VWS V14.01,2013-09-07 04:01:00,
2013-09-07 00:04:00,66.2,57.3,29.92,SW,231,1.0,2.0,73,0.00,,BKN060,0.00,VWS V14.01,2013-09-07 04:04:00,
2013-09-07 00:09:00,66.3,57.0,29.91,SSW,211,1.0,3.0,72,0.00,,BKN060,0.00,VWS V14.01,2013-09-07 04:09:00,
2013-09-07 00:14:00,66.5,56.8,29.91,SSE,150,0.0,1.0,71,0.00,,BKN060,0.00,VWS V14.01,2013-09-07 04:14:00,
2013-09-07 00:19:00,66.6,56.9,29.91,SSW,204,5.0,6.0,71,0.00,,BKN060,0.00,VWS V14.01,2013-09-07 04:19:00,
2013-09-07 00:24:00,66.7,57.0,29.91,SSW,211,1.0,2.0,71,0.00,,BKN060,0.00,VWS V14.01,2013-09-07 04:24:00,
2013-09-07 00:29:00,66.8,56.7,29.91,SW,215,1.0,1.0,70,0.00,,BKN060,0.00,VWS V14.01,2013-09-07 04:29:00,
2013-09-07 00:34:00,66.9,57.2,29.91,ESE,115,2.0,2.0,71,0.00,,BKN060,0.00,VWS V14.01,2013-09-07 04:34:00,
2013-09-07 00:39:00,67.0,56.9,29.90,SW,231,3.0,3.0,70,0.00,,BKN060,0.00,VWS V14.01,2013-09-07 04:39:00,
2013-09-07 00:44:00,67.1,57.0,29.90,SE,136,2.0,2.0,70,0.00,,BKN060,0.00,VWS V14.01,2013-09-07 04:44:00,
2013-09-07 00:49:00,67.2,57.1,29.90,SSW,201,1.0,2.0,70,0.00,,BKN060,0.00,VWS V14.01,2013-09-07 04:49:00,
2013-09-07 00:54:00,67.3,57.2,29.90,South,184,4.0,4.0,70,0.00,,BKN060,0.00,VWS V14.01,2013-09-07 04:54:00,
2013-09-07 00:59:00,67.6,57.9,29.89,SE,140,2.0,3.0,71,0.00,,BKN060,0.00,VWS V14.01,2013-09-07 04:59:00,
2013-09-07 01:04:00,67.7,58.0,29.89,SSE,165,2.0,4.0,71,0.00,,FEW050,0.00,VWS V14.01,2013-09-07 05:04:00,
2013-09-07 01:09:00,67.8,58.1,29.89,SW,234,4.0,6.0,71,0.00,,FEW050,0.00,VWS V14.01,2013-09-07 05:09:00,
2013-09-07 01:14:00,68.0,57.9,29.89,SSE,161,6.0,7.0,70,0.00,,FEW050,0.00,VWS V14.01,2013-09-07 05:14:00,
2013-09-07 01:19:00,68.1,58.3,29.89,SSE,150,1.0,1.0,71,0.00,,FEW050,0.00,VWS V14.01,2013-09-07 05:19:00,
2013-09-07 01:24:00,68.1,58.7,29.88,SE,129,4.0,5.0,72,0.00,,FEW050,0.00,VWS V14.01,2013-09-07 05:24:00,
2013-09-07 01:29:00,68.0,58.7,29.88,SE,131,2.0,2.0,72,0.00,,FEW050,0.00,VWS V14.01,2013-09-07 05:29:00,
2013-09-07 01:34:00,67.9,58.5,29.88,SSE,161,1.0,1.0,72,0.00,,FEW050,0.00,VWS V14.01,2013-09-07 05:34:00,
2013-09-07 01:39:00,67.8,58.5,29.88,North,7,2.0,4.0,72,0.00,,FEW050,0.00,VWS V14.01,2013-09-07 05:39:00,
2013-09-07 01:44:00,67.9,58.5,29.88,South,188,2.0,5.0,72,0.00,,FEW050,0.00,VWS V14.01,2013-09-07 05:44:00,
2013-09-07 01:49:00,68.4,59.0,29.88,SSE,148,3.0,4.0,72,0.00,,FEW050,0.00,VWS V14.01,2013-09-07 05:49:00,
2013-09-07 01:55:00,68.6,59.2,29.87,WSW,247,5.0,5.0,72,0.00,,FEW050,0.00,VWS V14.01,2013-09-07 05:55:00,
2013-09-07 02:00:00,69.0,59.6,29.87,SW,229,9.0,9.0,72,0.00,,FEW050,0.00,VWS V14.01,2013-09-07 06:00:00,
2013-09-07 02:05:00,69.5,60.1,29.86,WSW,247,8.0,8.0,72,0.00,,SCT110,0.00,VWS V14.01,2013-09-07 06:05:00,
2013-09-07 02:10:00,69.9,60.1,29.86,WSW,238,10.0,13.0,71,0.00,,SCT110,0.00,VWS V14.01,2013-09-07 06:10:00,
2013-09-07 02:15:00,70.3,60.5,29.86,SW,234,6.0,6.0,71,0.00,,SCT110,0.00,VWS V14.01,2013-09-07 06:15:00,
2013-09-07 02:20:00,70.5,60.7,29.86,WSW,247,5.0,11.0,71,0.00,,SCT110,0.00,VWS V14.01,2013-09-07 06:20:00,
2013-09-07 02:25:00,70.7,61.2,29.86,West,265,9.0,13.0,72,0.00,,SCT110,0.00,VWS V14.01,2013-09-07 06:25:00,
2013-09-07 02:30:00,71.0,61.1,29.85,WSW,245,9.0,10.0,71,0.00,,SCT110,0.00,VWS V14.01,2013-09-07 06:30:00,
2013-09-07 02:35:00,71.3,61.8,29.86,WSW,246,13.0,14.0,72,0.00,,SCT110,0.00,VWS V14.01,2013-09-07 06:35:00,
2013-09-07 02:40:00,71.8,62.3,29.85,West,268,10.0,10.0,72,0.00,,SCT110,0.00,VWS V14.01,2013-09-07 06:40:00,
2013-09-07 02:45:00,72.4,62.5,29.85,WSW,256,14.0,15.0,71,0.00,,SCT110,0.00,VWS V14.01,2013-09-07 06:45:00,
2013-09-07 02:50:00,72.5,62.6,29.85,SSW,204,6.0,13.0,71,0.00,,SCT110,0.00,VWS V14.01,2013-09-07 06:50:00,
2013-09-07 02:55:00,72.6,62.7,29.85,SW,222,7.0,14.0,71,0.00,,SCT110,0.00,VWS V14.01,2013-09-07 06:55:00,
2013-09-07 03:00:00,72.9,63.0,29.85,SW,221,7.0,19.0,71,0.00,,SCT110,0.00,VWS V14.01,2013-09-07 07:00:00,
2013-09-07 03:05:00,73.1,63.2,29.85,West,279,13.0,16.0,71,0.00,,FEW055,0.00,VWS V14.01,2013-09-07 07:05:00,
2013-09-07 03:10:00,73.1,63.2,29.85,WNW,284,17.0,20.0,71,0.00,,FEW055,0.00,VWS V14.01,2013-09-07 07:10:00,
2013-09-07 03:15:00,73.1,63.5,29.85,SSW,205,11.0,14.0,72,0.00,,FEW055,0.00,VWS V14.01,2013-09-07 07:15:00,
2013-09-07 03:20:00,73.0,63.5,29.84,SW,230,6.0,9.0,72,0.00,,FEW055,0.00,VWS V14.01,2013-09-07 07:20:00,
2013-09-07 03:25:00,72.8,63.7,29.84,WNW,283,7.0,7.0,73,0.00,,FEW055,0.00,VWS V14.01,2013-09-07 07:25:00,
2013-09-07 03:30:00,72.8,63.7,29.84,SSW,201,13.0,15.0,73,0.00,,FEW055,0.00,VWS V14.01,2013-09-07 07:30:00,
2013-09-07 03:35:00,72.9,64.1,29.84,SW,225,9.0,11.0,74,0.00,,FEW055,0.00,VWS V14.01,2013-09-07 07:35:00,
2013-09-07 03:40:00,72.8,64.4,29.83,SW,230,5.0,8.0,75,0.00,,FEW055,0.00,VWS V14.01,2013-09-07 07:40:00,
2013-09-07 03:45:00,72.6,64.6,29.84,NNW,331,2.0,2.0,76,0.00,,FEW055,0.00,VWS V14.01,2013-09-07 07:45:00,
2013-09-07 03:50:00,72.5,64.5,29.83,WSW,249,3.0,4.0,76,0.00,,FEW055,0.00,VWS V14.01,2013-09-07 07:50:00,
2013-09-07 03:55:00,72.4,64.8,29.84,WNW,283,4.0,8.0,77,0.00,,FEW055,0.00,VWS V14.01,2013-09-07 07:55:00,
2013-09-07 04:04:00,72.1,65.9,29.84,WSW,244,4.0,5.0,81,0.07,,FEW055,0.07,VWS V14.01,2013-09-07 08:04:00,
2013-09-07 04:09:00,71.3,65.9,29.83,NNW,334,1.0,2.0,83,0.07,,CLR,0.07,VWS V14.01,2013-09-07 08:09:00,
2013-09-07 04:14:00,70.7,66.0,29.84,West,270,4.0,5.0,85,0.07,,CLR,0.07,VWS V14.01,2013-09-07 08:14:00,
2013-09-07 04:19:00,70.2,66.2,29.83,WNW,294,10.0,10.0,87,0.11,,CLR,0.11,VWS V14.01,2013-09-07 08:19:00,
2013-09-07 04:24:00,69.9,66.2,29.83,SW,221,11.0,12.0,88,0.11,,CLR,0.11,VWS V14.01,2013-09-07 08:24:00,
2013-09-07 04:29:00,69.5,66.1,29.83,SW,217,11.0,16.0,89,0.11,,CLR,0.11,VWS V14.01,2013-09-07 08:29:00,
2013-09-07 04:34:00,69.3,66.2,29.82,SW,217,4.0,5.0,90,0.11,,CLR,0.11,VWS V14.01,2013-09-07 08:34:00,
2013-09-07 04:39:00,69.1,66.4,29.83,South,180,4.0,9.0,91,0.11,,CLR,0.11,VWS V14.01,2013-09-07 08:39:00,
2013-09-07 04:44:00,69.0,66.6,29.83,West,263,2.0,3.0,92,0.13,,CLR,0.13,VWS V14.01,2013-09-07 08:44:00,
2013-09-07 04:49:00,69.0,66.6,29.83,SW,215,2.0,2.0,92,0.13,,CLR,0.13,VWS V14.01,2013-09-07 08:49:00,
2013-09-07 04:54:00,69.0,66.6,29.83,SW,214,5.0,5.0,92,0.13,,CLR,0.13,VWS V14.01,2013-09-07 08:54:00,
2013-09-07 04:59:00,69.0,66.6,29.83,SW,224,6.0,8.0,92,0.13,,CLR,0.13,VWS V14.01,2013-09-07 08:59:00,
2013-09-07 05:04:00,69.1,66.7,29.83,WSW,240,10.0,10.0,92,0.06,,CLR,0.13,VWS V14.01,2013-09-07 09:04:00,
2013-09-07 05:09:00,69.2,66.8,29.83,WNW,298,7.0,8.0,92,0.06,,CLR,0.13,VWS V14.01,2013-09-07 09:09:00,
2013-09-07 05:14:00,69.3,66.9,29.83,NW,318,8.0,10.0,92,0.06,,CLR,0.13,VWS V14.01,2013-09-07 09:14:00,
2013-09-07 05:19:00,69.4,67.0,29.83,West,276,1.0,3.0,92,0.06,,CLR,0.13,VWS V14.01,2013-09-07 09:19:00,
2013-09-07 05:24:00,69.4,67.0,29.83,SW,234,3.0,9.0,92,0.06,,CLR,0.13,VWS V14.01,2013-09-07 09:24:00,
2013-09-07 05:29:00,69.4,67.0,29.84,NW,314,2.0,3.0,92,0.06,,CLR,0.13,VWS V14.01,2013-09-07 09:29:00,
2013-09-07 05:34:00,69.4,66.7,29.83,West,275,7.0,12.0,91,0.02,,CLR,0.13,VWS V14.01,2013-09-07 09:34:00,
2013-09-07 05:39:00,69.6,66.9,29.83,West,269,3.0,7.0,91,0.02,,CLR,0.13,VWS V14.01,2013-09-07 09:39:00,
2013-09-07 05:44:00,69.5,66.8,29.83,WNW,283,3.0,6.0,91,0.02,,CLR,0.13,VWS V14.01,2013-09-07 09:44:00,
2013-09-07 05:49:00,69.5,66.8,29.83,West,274,8.0,8.0,91,0.02,,CLR,0.13,VWS V14.01,2013-09-07 09:49:00,
2013-09-07 05:54:00,69.5,66.8,29.84,North,357,2.0,2.0,91,0.02,,CLR,0.13,VWS V14.01,2013-09-07 09:54:00,
2013-09-07 05:59:00,69.4,67.0,29.84,NW,313,2.0,2.0,92,0.02,,CLR,0.13,VWS V14.01,2013-09-07 09:59:00,
2013-09-07 06:04:00,69.4,67.0,29.84,NW,321,2.0,3.0,92,0.00,,CLR,0.13,VWS V14.01,2013-09-07 10:04:00,
2013-09-07 06:09:00,69.3,66.9,29.83,North,352,3.0,3.0,92,0.00,,CLR,0.13,VWS V14.01,2013-09-07 10:09:00,
2013-09-07 06:14:00,69.3,66.9,29.83,NNW,339,3.0,4.0,92,0.00,,CLR,0.13,VWS V14.01,2013-09-07 10:14:00,
2013-09-07 06:19:00,69.2,66.8,29.83,NW,323,6.0,8.0,92,0.00,,CLR,0.13,VWS V14.01,2013-09-07 10:19:00,
2013-09-07 06:25:00,69.2,66.8,29.83,West,274,8.0,11.0,92,0.00,,CLR,0.13,VWS V14.01,2013-09-07 10:25:00,
2013-09-07 06:30:00,69.2,66.8,29.83,WNW,286,3.0,4.0,92,0.00,,CLR,0.13,VWS V14.01,2013-09-07 10:30:00,
2013-09-07 06:35:00,69.2,66.8,29.83,West,275,1.0,2.0,92,0.00,,CLR,0.13,VWS V14.01,2013-09-07 10:35:00,
2013-09-07 06:40:00,69.2,66.8,29.83,NW,322,2.0,2.0,92,0.00,,CLR,0.13,VWS V14.01,2013-09-07 10:40:00,
2013-09-07 06:45:00,69.1,66.7,29.83,SW,229,0.0,0.0,92,0.00,,CLR,0.13,VWS V14.01,2013-09-07 10:45:00,
2013-09-07 06:50:00,69.1,66.7,29.83,West,280,2.0,3.0,92,0.00,,CLR,0.13,VWS V14.01,2013-09-07 10:50:00,
2013-09-07 06:55:00,69.1,66.7,29.83,West,263,2.0,2.0,92,0.00,,CLR,0.13,VWS V14.01,2013-09-07 10:55:00,
2013-09-07 07:00:00,69.1,66.7,29.83,WNW,290,4.0,7.0,92,0.00,,CLR,0.13,VWS V14.01,2013-09-07 11:00:00,
2013-09-07 07:05:00,69.2,66.8,29.83,NNW,327,2.0,3.0,92,0.00,,CLR,0.13,VWS V14.01,2013-09-07 11:05:00,
2013-09-07 07:10:00,69.2,66.8,29.83,West,261,0.0,1.0,92,0.00,,CLR,0.13,VWS V14.01,2013-09-07 11:10:00,
2013-09-07 07:15:00,69.2,66.8,29.83,NW,315,2.0,3.0,92,0.00,,CLR,0.13,VWS V14.01,2013-09-07 11:15:00,
2013-09-07 07:20:00,69.2,66.8,29.83,NNW,327,6.0,8.0,92,0.00,,CLR,0.13,VWS V14.01,2013-09-07 11:20:00,
2013-09-07 07:25:00,69.2,66.8,29.83,SW,219,5.0,5.0,92,0.00,,CLR,0.13,VWS V14.01,2013-09-07 11:25:00,
2013-09-07 07:30:00,69.3,66.6,29.83,NW,316,3.0,3.0,91,0.00,,CLR,0.13,VWS V14.01,2013-09-07 11:30:00,
2013-09-07 07:35:00,69.3,66.6,29.82,NW,325,8.0,9.0,91,0.00,,CLR,0.13,VWS V14.01,2013-09-07 11:35:00,
2013-09-07 07:40:00,69.3,66.6,29.83,NNW,344,0.0,1.0,91,0.00,,CLR,0.13,VWS V14.01,2013-09-07 11:40:00,
2013-09-07 07:45:00,69.4,66.7,29.83,North,11,1.0,2.0,91,0.00,,CLR,0.13,VWS V14.01,2013-09-07 11:45:00,
2013-09-07 07:50:00,69.4,66.7,29.83,NW,323,1.0,2.0,91,0.00,,CLR,0.13,VWS V14.01,2013-09-07 11:50:00,
2013-09-07 07:55:00,69.5,66.8,29.83,WSW,238,1.0,2.0,91,0.00,,CLR,0.13,VWS V14.01,2013-09-07 11:55:00,
2013-09-07 08:00:00,69.5,66.8,29.83,West,277,2.0,3.0,91,0.00,,CLR,0.13,VWS V14.01,2013-09-07 12:00:00,
2013-09-07 08:05:00,69.6,66.9,29.83,WSW,253,2.0,3.0,91,0.00,,FEW048,0.13,VWS V14.01,2013-09-07 12:05:00,
2013-09-07 08:10:00,69.7,66.6,29.83,SSW,193,5.0,7.0,90,0.00,,FEW048,0.13,VWS V14.01,2013-09-07 12:10:00,
2013-09-07 08:15:00,69.8,66.7,29.83,SSW,195,2.0,3.0,90,0.00,,FEW048,0.13,VWS V14.01,2013-09-07 12:15:00,
2013-09-07 08:20:00,69.9,66.8,29.83,SW,227,4.0,4.0,90,0.00,,FEW048,0.13,VWS V14.01,2013-09-07 12:20:00,
2013-09-07 08:25:00,69.9,66.8,29.83,SW,220,4.0,6.0,90,0.00,,FEW048,0.13,VWS V14.01,2013-09-07 12:25:00,
2013-09-07 08:30:00,70.0,66.9,29.83,WNW,293,2.0,3.0,90,0.00,,FEW048,0.13,VWS V14.01,2013-09-07 12:30:00,
2013-09-07 08:35:00,70.0,66.9,29.83,WNW,286,2.0,3.0,90,0.00,,FEW048,0.13,VWS V14.01,2013-09-07 12:35:00,
2013-09-07 08:40:00,70.0,66.9,29.83,North,7,0.0,1.0,90,0.00,,FEW048,0.13,VWS V14.01,2013-09-07 12:40:00,
2013-09-07 08:45:00,70.0,66.9,29.84,NNE,30,2.0,2.0,90,0.00,,FEW048,0.13,VWS V14.01,2013-09-07 12:45:00,
2013-09-07 08:50:00,70.0,66.9,29.83,North,7,1.0,2.0,90,0.00,,FEW048,0.13,VWS V14.01,2013-09-07 12:50:00,
2013-09-07 08:55:00,69.9,66.8,29.84,NW,309,2.0,2.0,90,0.00,,FEW048,0.13,VWS V14.01,2013-09-07 12:55:00,
2013-09-07 09:01:00,69.8,66.7,29.83,West,269,1.0,2.0,90,0.03,,FEW048,0.16,VWS V14.01,2013-09-07 13:01:00,
2013-09-07 09:06:00,69.7,67.0,29.83,West,269,0.0,0.0,91,0.07,,CLR,0.20,VWS V14.01,2013-09-07 13:06:00,
2013-09-07 09:11:00,69.5,66.8,29.83,East,81,2.0,2.0,91,0.08,,CLR,0.21,VWS V14.01,2013-09-07 13:11:00,
2013-09-07 09:16:00,69.4,67.0,29.83,SE,138,0.0,1.0,92,0.08,,CLR,0.21,VWS V14.01,2013-09-07 13:16:00,
2013-09-07 09:21:00,69.3,66.9,29.83,WSW,250,2.0,2.0,92,0.08,,CLR,0.21,VWS V14.01,2013-09-07 13:21:00,
2013-09-07 09:26:00,69.2,66.8,29.82,WSW,245,1.0,1.0,92,0.08,,CLR,0.21,VWS V14.01,2013-09-07 13:26:00,
2013-09-07 09:32:00,69.2,67.1,29.83,WNW,290,2.0,3.0,93,0.08,,CLR,0.21,VWS V14.01,2013-09-07 13:32:00,
2013-09-07 09:37:00,69.2,67.1,29.83,West,259,2.0,2.0,93,0.08,,CLR,0.21,VWS V14.01,2013-09-07 13:37:00,
2013-09-07 09:42:00,69.3,67.2,29.82,West,269,0.0,1.0,93,0.08,,CLR,0.21,VWS V14.01,2013-09-07 13:42:00,
2013-09-07 09:47:00,69.4,67.6,29.82,WNW,286,2.0,2.0,94,0.08,,CLR,0.21,VWS V14.01,2013-09-07 13:47:00,
2013-09-07 09:52:00,69.5,67.4,29.83,WSW,249,2.0,3.0,93,0.08,,CLR,0.21,VWS V14.01,2013-09-07 13:52:00,
2013-09-07 09:57:00,69.7,67.6,29.82,SW,221,7.0,7.0,93,0.08,,CLR,0.21,VWS V14.01,2013-09-07 13:57:00,
2013-09-07 10:02:00,70.1,68.0,29.82,SSW,199,1.0,3.0,93,0.08,,CLR,0.21,VWS V14.01,2013-09-07 14:02:00,
2013-09-07 10:07:00,70.3,67.9,29.82,SW,221,2.0,3.0,92,0.04,,CLR,0.22,VWS V14.01,2013-09-07 14:07:00,
2013-09-07 10:12:00,70.4,68.0,29.82,SW,234,7.0,7.0,92,0.04,,CLR,0.22,VWS V14.01,2013-09-07 14:12:00,
2013-09-07 10:17:00,70.4,68.0,29.82,NNW,327,3.0,8.0,92,0.04,,CLR,0.22,VWS V14.01,2013-09-07 14:17:00,
2013-09-07 10:22:00,70.6,68.5,29.82,NE,51,2.0,2.0,93,0.04,,CLR,0.22,VWS V14.01,2013-09-07 14:22:00,
2013-09-07 10:27:00,71.1,68.7,29.83,WSW,246,4.0,6.0,92,0.04,,CLR,0.22,VWS V14.01,2013-09-07 14:27:00,
2013-09-07 10:32:00,71.4,69.0,29.83,SSW,193,1.0,2.0,92,0.04,,CLR,0.22,VWS V14.01,2013-09-07 14:32:00,
2013-09-07 10:37:00,71.2,67.8,29.83,WNW,291,2.0,2.0,89,0.01,,CLR,0.22,VWS V14.01,2013-09-07 14:37:00,
2013-09-07 10:42:00,70.8,67.4,29.83,WNW,282,1.0,2.0,89,0.01,,CLR,0.22,VWS V14.01,2013-09-07 14:42:00,
2013-09-07 10:47:00,70.7,67.6,29.83,West,273,4.0,4.0,90,0.01,,CLR,0.22,VWS V14.01,2013-09-07 14:47:00,
2013-09-07 10:52:00,70.7,67.9,29.83,NW,319,5.0,5.0,91,0.01,,CLR,0.22,VWS V14.01,2013-09-07 14:52:00,
2013-09-07 10:57:00,70.7,67.9,29.83,NNW,331,6.0,6.0,91,0.01,,CLR,0.22,VWS V14.01,2013-09-07 14:57:00,
2013-09-07 11:02:00,70.9,68.2,29.84,WSW,248,4.0,4.0,91,0.01,,OVC005,0.22,VWS V14.01,2013-09-07 15:02:00,
2013-09-07 11:07:00,71.2,68.1,29.84,West,274,2.0,4.0,90,0.01,,OVC005,0.22,VWS V14.01,2013-09-07 15:07:00,
2013-09-07 11:12:00,71.6,68.2,29.84,West,265,4.0,4.0,89,0.01,,OVC005,0.22,VWS V14.01,2013-09-07 15:12:00,
2013-09-07 11:17:00,71.9,68.5,29.84,West,268,2.0,3.0,89,0.01,,OVC005,0.22,VWS V14.01,2013-09-07 15:17:00,
2013-09-07 11:22:00,72.4,69.0,29.84,West,281,1.0,3.0,89,0.01,,OVC005,0.22,VWS V14.01,2013-09-07 15:22:00,
2013-09-07 11:27:00,72.8,69.0,29.83,WNW,293,2.0,4.0,88,0.01,,OVC005,0.22,VWS V14.01,2013-09-07 15:27:00,
2013-09-07 11:32:00,73.1,68.3,29.83,WNW,294,2.0,5.0,85,0.01,,OVC005,0.22,VWS V14.01,2013-09-07 15:32:00,
2013-09-07 11:37:00,73.3,68.5,29.83,NW,304,5.0,9.0,85,0.00,,OVC005,0.22,VWS V14.01,2013-09-07 15:37:00,
2013-09-07 11:42:00,73.6,69.5,29.83,NW,311,9.0,10.0,87,0.00,,OVC005,0.22,VWS V14.01,2013-09-07 15:42:00,
2013-09-07 11:47:00,73.8,69.0,29.83,NW,317,3.0,7.0,85,0.00,,OVC005,0.22,VWS V14.01,2013-09-07 15:47:00,
2013-09-07 11:52:00,74.0,68.9,29.83,East,96,2.0,2.0,84,0.00,,OVC005,0.22,VWS V14.01,2013-09-07 15:52:00,
2013-09-07 11:57:00,74.1,69.3,29.83,WNW,302,3.0,6.0,85,0.00,,OVC005,0.22,VWS V14.01,2013-09-07 15:57:00,
2013-09-07 12:02:00,74.3,69.2,29.83,WNW,295,5.0,7.0,84,0.00,,,0.22,VWS V14.01,2013-09-07 16:02:00,
2013-09-07 12:07:00,74.4,68.9,29.84,NW,313,3.0,3.0,83,0.00,,,0.22,VWS V14.01,2013-09-07 16:07:00,
2013-09-07 12:12:00,74.5,69.3,29.83,SW,221,7.0,7.0,84,0.00,,,0.22,VWS V14.01,2013-09-07 16:12:00,
2013-09-07 12:17:00,74.4,68.6,29.83,West,275,6.0,6.0,82,0.00,,,0.22,VWS V14.01,2013-09-07 16:17:00,
2013-09-07 12:22:00,74.2,68.7,29.83,SW,236,4.0,4.0,83,0.00,,,0.22,VWS V14.01,2013-09-07 16:22:00,
2013-09-07 12:27:00,74.1,68.3,29.83,NNW,335,4.0,4.0,82,0.00,,,0.22,VWS V14.01,2013-09-07 16:27:00,
2013-09-07 12:32:00,74.3,68.4,29.83,North,11,3.0,3.0,82,0.00,,,0.22,VWS V14.01,2013-09-07 16:32:00,
2013-09-07 12:37:00,74.4,68.6,29.83,NNW,329,5.0,5.0,82,0.00,,,0.22,VWS V14.01,2013-09-07 16:37:00,
2013-09-07 12:42:00,74.4,68.2,29.83,WNW,299,3.0,9.0,81,0.00,,,0.22,VWS V14.01,2013-09-07 16:42:00,
2013-09-07 12:47:00,74.6,69.1,29.83,NNW,333,4.0,4.0,83,0.00,,,0.22,VWS V14.01,2013-09-07 16:47:00,
2013-09-07 12:52:00,74.9,69.4,29.83,NNW,331,4.0,4.0,83,0.00,,,0.22,VWS V14.01,2013-09-07 16:52:00,
2013-09-07 12:57:00,75.0,68.8,29.83,NNW,331,4.0,5.0,81,0.00,,,0.22,VWS V14.01,2013-09-07 16:57:00,
2013-09-07 13:03:00,74.8,68.6,29.83,WNW,302,5.0,5.0,81,0.00,,OVC005,0.22,VWS V14.01,2013-09-07 17:03:00,
2013-09-07 13:08:00,74.7,68.8,29.82,NNW,331,2.0,4.0,82,0.00,,OVC005,0.22,VWS V14.01,2013-09-07 17:08:00,
2013-09-07 13:13:00,74.8,68.6,29.82,NW,316,2.0,3.0,81,0.00,,OVC005,0.22,VWS V14.01,2013-09-07 17:13:00,
2013-09-07 13:18:00,74.9,68.3,29.82,NW,304,2.0,4.0,80,0.00,,OVC005,0.22,VWS V14.01,2013-09-07 17:18:00,
2013-09-07 13:23:00,75.1,68.5,29.82,NW,318,3.0,4.0,80,0.00,,OVC005,0.22,VWS V14.01,2013-09-07 17:23:00,
2013-09-07 13:28:00,75.2,69.0,29.82,NW,315,5.0,8.0,81,0.00,,OVC005,0.22,VWS V14.01,2013-09-07 17:28:00,
2013-09-07 13:33:00,75.3,68.3,29.82,North,349,5.0,9.0,79,0.00,,OVC005,0.22,VWS V14.01,2013-09-07 17:33:00,
2013-09-07 13:38:00,75.5,68.9,29.82,NW,312,5.0,5.0,80,0.00,,OVC005,0.22,VWS V14.01,2013-09-07 17:38:00,
2013-09-07 13:43:00,75.7,68.7,29.82,NW,313,6.0,8.0,79,0.00,,OVC005,0.22,VWS V14.01,2013-09-07 17:43:00,
2013-09-07 13:48:00,75.5,68.9,29.82,NW,316,9.0,9.0,80,0.00,,OVC005,0.22,VWS V14.01,2013-09-07 17:48:00,
2013-09-07 13:53:00,75.5,68.5,29.82,NNW,328,3.0,5.0,79,0.00,,OVC005,0.22,VWS V14.01,2013-09-07 17:53:00,
2013-09-07 13:58:00,75.3,68.3,29.83,West,267,6.0,6.0,79,0.00,,OVC005,0.22,VWS V14.01,2013-09-07 17:58:00,
2013-09-07 14:03:00,75.0,68.8,29.82,WNW,292,2.0,5.0,81,0.00,,OVC007,0.22,VWS V14.01,2013-09-07 18:03:00,
2013-09-07 14:08:00,74.9,68.3,29.82,NNW,335,2.0,4.0,80,0.00,,OVC007,0.22,VWS V14.01,2013-09-07 18:08:00,
2013-09-07 14:13:00,75.0,68.4,29.82,WNW,297,4.0,8.0,80,0.00,,OVC007,0.22,VWS V14.01,2013-09-07 18:13:00,
2013-09-07 14:18:00,75.0,68.8,29.82,NNW,336,4.0,5.0,81,0.00,,OVC007,0.22,VWS V14.01,2013-09-07 18:18:00,
2013-09-07 14:23:00,75.1,68.5,29.83,NNW,338,5.0,5.0,80,0.00,,OVC007,0.22,VWS V14.01,2013-09-07 18:23:00,
2013-09-07 14:28:00,74.9,68.3,29.83,NW,315,8.0,9.0,80,0.00,,OVC007,0.22,VWS V14.01,2013-09-07 18:28:00,
2013-09-07 14:33:00,74.8,68.6,29.83,NNW,328,4.0,4.0,81,0.00,,OVC007,0.22,VWS V14.01,2013-09-07 18:33:00,
2013-09-07 14:38:00,74.9,68.7,29.83,NW,321,3.0,8.0,81,0.00,,OVC007,0.22,VWS V14.01,2013-09-07 18:38:00,
2013-09-07 14:43:00,75.1,68.9,29.83,NW,305,3.0,3.0,81,0.00,,OVC007,0.22,VWS V14.01,2013-09-07 18:43:00,
2013-09-07 14:48:00,75.4,68.8,29.83,NW,315,6.0,6.0,80,0.00,,OVC007,0.22,VWS V14.01,2013-09-07 18:48:00,
2013-09-07 14:53:00,75.6,69.0,29.83,West,271,2.0,4.0,80,0.00,,OVC007,0.22,VWS V14.01,2013-09-07 18:53:00,
2013-09-07 14:58:00,75.8,68.8,29.83,West,275,2.0,2.0,79,0.00,,OVC007,0.22,VWS V14.01,2013-09-07 18:58:00,
2013-09-07 15:03:00,76.0,68.7,29.83,West,271,4.0,5.0,78,0.00,,OVC009,0.22,VWS V14.01,2013-09-07 19:03:00,
2013-09-07 15:08:00,76.1,69.1,29.83,NW,319,4.0,5.0,79,0.00,,OVC009,0.22,VWS V14.01,2013-09-07 19:08:00,
2013-09-07 15:13:00,75.9,68.9,29.83,West,275,2.0,2.0,79,0.00,,OVC009,0.22,VWS V14.01,2013-09-07 19:13:00,
2013-09-07 15:18:00,75.8,68.5,29.83,WSW,241,3.0,3.0,78,0.00,,OVC009,0.22,VWS V14.01,2013-09-07 19:18:00,
2013-09-07 15:23:00,76.1,69.1,29.82,NNW,343,4.0,5.0,79,0.00,,OVC009,0.22,VWS V14.01,2013-09-07 19:23:00,
2013-09-07 15:28:00,76.4,69.0,29.82,WSW,256,3.0,3.0,78,0.00,,OVC009,0.22,VWS V14.01,2013-09-07 19:28:00,
2013-09-07 15:33:00,76.6,69.2,29.82,WNW,298,2.0,3.0,78,0.00,,OVC009,0.22,VWS V14.01,2013-09-07 19:33:00,
2013-09-07 15:38:00,76.9,69.2,29.82,WSW,247,3.0,3.0,77,0.00,,OVC009,0.22,VWS V14.01,2013-09-07 19:38:00,
2013-09-07 15:43:00,77.2,69.4,29.82,NNE,31,4.0,5.0,77,0.00,,OVC009,0.22,VWS V14.01,2013-09-07 19:43:00,
2013-09-07 15:48:00,77.5,70.1,29.82,WNW,293,3.0,4.0,78,0.00,,OVC009,0.22,VWS V14.01,2013-09-07 19:48:00,
2013-09-07 15:53:00,78.0,70.2,29.82,North,7,4.0,4.0,77,0.00,,OVC009,0.22,VWS V14.01,2013-09-07 19:53:00,
2013-09-07 15:58:00,78.6,70.4,29.82,North,11,4.0,4.0,76,0.00,,OVC009,0.22,VWS V14.01,2013-09-07 19:58:00,
2013-09-07 16:03:00,78.8,70.6,29.82,North,357,2.0,2.0,76,0.00,,BKN017,0.22,VWS V14.01,2013-09-07 20:03:00,
2013-09-07 16:08:00,79.0,70.4,29.82,NNE,14,2.0,3.0,75,0.00,,BKN017,0.22,VWS V14.01,2013-09-07 20:08:00,
2013-09-07 16:13:00,78.9,70.3,29.82,North,7,3.0,6.0,75,0.00,,BKN017,0.22,VWS V14.01,2013-09-07 20:13:00,
2013-09-07 16:18:00,78.6,70.0,29.82,NNW,337,5.0,6.0,75,0.00,,BKN017,0.22,VWS V14.01,2013-09-07 20:18:00,
2013-09-07 16:23:00,78.3,70.1,29.82,North,357,4.0,6.0,76,0.00,,BKN017,0.22,VWS V14.01,2013-09-07 20:23:00,
2013-09-07 16:28:00,77.9,69.7,29.82,North,2,3.0,5.0,76,0.00,,BKN017,0.22,VWS V14.01,2013-09-07 20:28:00,
2013-09-07 16:33:00,77.7,69.9,29.82,NNW,333,5.0,5.0,77,0.00,,BKN017,0.22,VWS V14.01,2013-09-07 20:33:00,
2013-09-07 16:39:00,77.8,70.0,29.82,NNW,346,2.0,3.0,77,0.00,,BKN017,0.22,VWS V14.01,2013-09-07 20:39:00,
2013-09-07 16:44:00,77.6,69.8,29.83,NNE,29,6.0,6.0,77,0.00,,BKN017,0.22,VWS V14.01,2013-09-07 20:44:00,
2013-09-07 16:49:00,77.0,69.6,29.83,North,357,4.0,4.0,78,0.00,,BKN017,0.22,VWS V14.01,2013-09-07 20:49:00,
2013-09-07 16:54:00,76.5,69.5,29.83,NNE,13,7.0,7.0,79,0.00,,BKN017,0.22,VWS V14.01,2013-09-07 20:54:00,
2013-09-07 16:59:00,76.5,69.9,29.83,NNE,30,2.0,4.0,80,0.00,,BKN017,0.22,VWS V14.01,2013-09-07 20:59:00,
2013-09-07 17:04:00,76.8,70.2,29.83,ENE,59,6.0,9.0,80,0.00,,CLR,0.22,VWS V14.01,2013-09-07 21:04:00,
2013-09-07 17:09:00,76.6,69.6,29.83,NE,54,3.0,6.0,79,0.00,,CLR,0.22,VWS V14.01,2013-09-07 21:09:00,
2013-09-07 17:14:00,76.2,69.6,29.84,NE,42,4.0,5.0,80,0.00,,CLR,0.22,VWS V14.01,2013-09-07 21:14:00,
2013-09-07 17:19:00,75.7,69.5,29.84,NE,51,6.0,8.0,81,0.00,,CLR,0.22,VWS V14.01,2013-09-07 21:19:00,
2013-09-07 17:24:00,74.8,68.9,29.85,NE,56,5.0,6.0,82,0.00,,CLR,0.22,VWS V14.01,2013-09-07 21:24:00,
2013-09-07 17:29:00,74.1,68.6,29.85,NE,36,2.0,5.0,83,0.00,,CLR,0.22,VWS V14.01,2013-09-07 21:29:00,
2013-09-07 17:34:00,73.8,68.7,29.85,NNE,33,4.0,6.0,84,0.00,,CLR,0.22,VWS V14.01,2013-09-07 21:34:00,
2013-09-07 17:39:00,73.4,68.6,29.85,ENE,76,7.0,7.0,85,0.00,,CLR,0.22,VWS V14.01,2013-09-07 21:39:00,
2013-09-07 17:44:00,73.0,68.2,29.85,NE,51,7.0,8.0,85,0.00,,CLR,0.22,VWS V14.01,2013-09-07 21:44:00,
2013-09-07 17:49:00,72.7,68.3,29.85,ENE,67,5.0,5.0,86,0.00,,CLR,0.22,VWS V14.01,2013-09-07 21:49:00,
2013-09-07 17:54:00,72.2,67.8,29.86,NE,54,6.0,6.0,86,0.00,,CLR,0.22,VWS V14.01,2013-09-07 21:54:00,
2013-09-07 17:59:00,72.0,67.9,29.86,ENE,57,3.0,3.0,87,0.00,,CLR,0.22,VWS V14.01,2013-09-07 21:59:00,
2013-09-07 18:04:00,72.0,67.9,29.86,NE,34,5.0,5.0,87,0.00,,CLR,0.22,VWS V14.01,2013-09-07 22:04:00,
2013-09-07 18:09:00,71.9,68.2,29.87,NNE,17,5.0,5.0,88,0.00,,CLR,0.22,VWS V14.01,2013-09-07 22:09:00,
2013-09-07 18:14:00,71.7,68.0,29.87,NE,36,6.0,6.0,88,0.00,,CLR,0.22,VWS V14.01,2013-09-07 22:14:00,
2013-09-07 18:19:00,71.6,67.9,29.87,NE,54,5.0,5.0,88,0.00,,CLR,0.22,VWS V14.01,2013-09-07 22:19:00,
2013-09-07 18:24:00,71.4,67.7,29.87,NNE,28,4.0,5.0,88,0.00,,CLR,0.22,VWS V14.01,2013-09-07 22:24:00,
2013-09-07 18:29:00,71.4,68.0,29.87,NE,48,5.0,5.0,89,0.00,,CLR,0.22,VWS V14.01,2013-09-07 22:29:00,
2013-09-07 18:34:00,71.3,67.9,29.87,NE,37,2.0,3.0,89,0.00,,CLR,0.22,VWS V14.01,2013-09-07 22:34:00,
2013-09-07 18:39:00,71.4,68.0,29.87,NNE,14,2.0,2.0,89,0.00,,CLR,0.22,VWS V14.01,2013-09-07 22:39:00,
2013-09-07 18:44:00,71.3,67.9,29.87,NNE,22,3.0,3.0,89,0.00,,CLR,0.22,VWS V14.01,2013-09-07 22:44:00,
2013-09-07 18:49:00,71.3,67.9,29.88,North,7,3.0,4.0,89,0.00,,CLR,0.22,VWS V14.01,2013-09-07 22:49:00,
2013-09-07 18:54:00,71.1,67.7,29.88,ENE,62,4.0,5.0,89,0.00,,CLR,0.22,VWS V14.01,2013-09-07 22:54:00,
2013-09-07 18:59:00,70.8,67.4,29.88,ENE,61,5.0,7.0,89,0.00,,CLR,0.22,VWS V14.01,2013-09-07 22:59:00,
2013-09-07 19:04:00,70.6,67.5,29.88,NE,40,3.0,4.0,90,0.00,,CLR,0.22,VWS V14.01,2013-09-07 23:04:00,
2013-09-07 19:09:00,70.4,67.3,29.88,NE,55,4.0,4.0,90,0.00,,CLR,0.22,VWS V14.01,2013-09-07 23:09:00,
2013-09-07 19:14:00,70.2,67.1,29.88,NNE,30,3.0,3.0,90,0.00,,CLR,0.22,VWS V14.01,2013-09-07 23:14:00,
2013-09-07 19:19:00,70.1,67.0,29.88,NE,47,2.0,3.0,90,0.00,,CLR,0.22,VWS V14.01,2013-09-07 23:19:00,
2013-09-07 19:24:00,70.0,67.3,29.88,NE,40,2.0,2.0,91,0.00,,CLR,0.22,VWS V14.01,2013-09-07 23:24:00,
2013-09-07 19:29:00,70.0,67.3,29.89,NE,34,2.0,2.0,91,0.00,,CLR,0.22,VWS V14.01,2013-09-07 23:29:00,
2013-09-07 19:34:00,70.0,67.3,29.89,ENE,59,2.0,2.0,91,0.00,,CLR,0.22,VWS V14.01,2013-09-07 23:34:00,
2013-09-07 19:39:00,69.9,67.2,29.89,ENE,66,2.0,2.0,91,0.00,,CLR,0.22,VWS V14.01,2013-09-07 23:39:00,
2013-09-07 19:44:00,69.9,67.2,29.89,ENE,66,1.0,2.0,91,0.00,,CLR,0.22,VWS V14.01,2013-09-07 23:44:00,
2013-09-07 19:49:00,69.9,67.2,29.89,North,357,1.0,2.0,91,0.00,,CLR,0.22,VWS V14.01,2013-09-07 23:49:00,
2013-09-07 19:54:00,69.9,67.2,29.90,NNW,335,2.0,3.0,91,0.00,,CLR,0.22,VWS V14.01,2013-09-07 23:54:00,
2013-09-07 19:59:00,69.8,67.1,29.90,NNE,23,4.0,4.0,91,0.00,,CLR,0.22,VWS V14.01,2013-09-07 23:59:00,
2013-09-07 20:04:00,69.7,67.0,29.90,North,357,3.0,3.0,91,0.00,,CLR,0.22,VWS V14.01,2013-09-08 00:04:00,
2013-09-07 20:09:00,69.7,66.6,29.90,NNW,346,2.0,3.0,90,0.00,,CLR,0.22,VWS V14.01,2013-09-08 00:09:00,
2013-09-07 20:14:00,69.6,66.9,29.90,North,357,3.0,3.0,91,0.00,,CLR,0.22,VWS V14.01,2013-09-08 00:14:00,
2013-09-07 20:19:00,69.5,66.8,29.90,North,7,4.0,4.0,91,0.00,,CLR,0.22,VWS V14.01,2013-09-08 00:19:00,
2013-09-07 20:24:00,69.4,66.7,29.91,NNW,343,3.0,3.0,91,0.00,,CLR,0.22,VWS V14.01,2013-09-08 00:24:00,
2013-09-07 20:29:00,69.3,66.6,29.91,NNW,344,5.0,6.0,91,0.00,,CLR,0.22,VWS V14.01,2013-09-08 00:29:00,
2013-09-07 20:35:00,69.1,66.4,29.91,North,2,4.0,6.0,91,0.00,,CLR,0.22,VWS V14.01,2013-09-08 00:35:00,
2013-09-07 20:40:00,68.9,66.2,29.91,NNW,348,6.0,9.0,91,0.00,,CLR,0.22,VWS V14.01,2013-09-08 00:40:00,
2013-09-07 20:45:00,68.6,65.9,29.91,NNE,15,5.0,5.0,91,0.00,,CLR,0.22,VWS V14.01,2013-09-08 00:45:00,
2013-09-07 20:50:00,68.3,65.3,29.92,NNE,32,6.0,7.0,90,0.00,,CLR,0.22,VWS V14.01,2013-09-08 00:50:00,
2013-09-07 20:55:00,67.9,64.9,29.92,North,357,3.0,5.0,90,0.00,,CLR,0.22,VWS V14.01,2013-09-08 00:55:00,
2013-09-07 21:00:00,67.6,64.6,29.92,North,357,5.0,5.0,90,0.00,,CLR,0.22,VWS V14.01,2013-09-08 01:00:00,
2013-09-07 21:05:00,67.4,64.4,29.92,NNE,12,4.0,4.0,90,0.00,,CLR,0.22,VWS V14.01,2013-09-08 01:05:00,
2013-09-07 21:10:00,67.3,64.3,29.93,North,7,5.0,7.0,90,0.00,,CLR,0.22,VWS V14.01,2013-09-08 01:10:00,
2013-09-07 21:15:00,67.2,64.2,29.92,NE,34,4.0,4.0,90,0.00,,CLR,0.22,VWS V14.01,2013-09-08 01:15:00,
2013-09-07 21:20:00,67.2,64.2,29.92,NNW,348,3.0,4.0,90,0.00,,CLR,0.22,VWS V14.01,2013-09-08 01:20:00,
2013-09-07 21:25:00,67.1,63.8,29.92,NNE,29,3.0,7.0,89,0.00,,CLR,0.22,VWS V14.01,2013-09-08 01:25:00,
2013-09-07 21:30:00,67.0,64.0,29.93,NNW,348,2.0,2.0,90,0.00,,CLR,0.22,VWS V14.01,2013-09-08 01:30:00,
2013-09-07 21:35:00,66.9,63.9,29.93,NNW,339,3.0,3.0,90,0.00,,CLR,0.22,VWS V14.01,2013-09-08 01:35:00,
2013-09-07 21:40:00,66.7,63.7,29.93,North,7,3.0,4.0,90,0.00,,CLR,0.22,VWS V14.01,2013-09-08 01:40:00,
2013-09-07 21:45:00,66.6,63.6,29.93,North,349,4.0,4.0,90,0.00,,CLR,0.22,VWS V14.01,2013-09-08 01:45:00,
2013-09-07 21:50:00,66.5,63.5,29.93,NNE,32,5.0,8.0,90,0.00,,CLR,0.22,VWS V14.01,2013-09-08 01:50:00,
2013-09-07 21:55:00,66.3,63.6,29.93,North,2,6.0,8.0,91,0.00,,CLR,0.22,VWS V14.01,2013-09-08 01:55:00,
2013-09-07 22:00:00,66.3,63.6,29.94,North,357,9.0,10.0,91,0.00,,CLR,0.22,VWS V14.01,2013-09-08 02:00:00,
2013-09-07 22:05:00,66.3,63.3,29.94,North,11,7.0,7.0,90,0.00,,CLR,0.22,VWS V14.01,2013-09-08 02:05:00,
2013-09-07 22:10:00,66.4,63.4,29.94,North,7,6.0,8.0,90,0.00,,CLR,0.22,VWS V14.01,2013-09-08 02:10:00,
2013-09-07 22:15:00,66.4,63.1,29.95,North,351,8.0,10.0,89,0.00,,CLR,0.22,VWS V14.01,2013-09-08 02:15:00,
2013-09-07 22:20:00,66.4,63.1,29.95,NNE,12,7.0,7.0,89,0.00,,CLR,0.22,VWS V14.01,2013-09-08 02:20:00,
2013-09-07 22:25:00,66.3,63.0,29.95,NNE,20,9.0,10.0,89,0.00,,CLR,0.22,VWS V14.01,2013-09-08 02:25:00,
2013-09-07 22:30:00,66.3,63.0,29.95,NE,35,5.0,9.0,89,0.00,,CLR,0.22,VWS V14.01,2013-09-08 02:30:00,
2013-09-07 22:35:00,66.2,62.9,29.95,NE,47,7.0,10.0,89,0.00,,CLR,0.22,VWS V14.01,2013-09-08 02:35:00,
2013-09-07 22:40:00,66.1,63.1,29.95,NE,52,9.0,10.0,90,0.00,,CLR,0.22,VWS V14.01,2013-09-08 02:40:00,
2013-09-07 22:45:00,66.0,62.7,29.96,NE,46,3.0,5.0,89,0.00,,CLR,0.22,VWS V14.01,2013-09-08 02:45:00,
2013-09-07 22:50:00,65.8,62.8,29.96,NE,53,5.0,5.0,90,0.00,,CLR,0.22,VWS V14.01,2013-09-08 02:50:00,
2013-09-07 22:55:00,65.6,62.6,29.96,NE,55,7.0,11.0,90,0.00,,CLR,0.22,VWS V14.01,2013-09-08 02:55:00,
2013-09-07 23:00:00,65.5,62.5,29.96,NE,51,9.0,13.0,90,0.00,,CLR,0.22,VWS V14.01,2013-09-08 03:00:00,
2013-09-07 23:05:00,65.5,62.5,29.97,NE,41,5.0,9.0,90,0.00,,CLR,0.22,VWS V14.01,2013-09-08 03:05:00,
2013-09-07 23:10:00,65.5,62.2,29.97,NE,44,13.0,14.0,89,0.00,,CLR,0.22,VWS V14.01,2013-09-08 03:10:00,
2013-09-07 23:15:00,65.5,61.9,29.97,East,94,7.0,7.0,88,0.00,,CLR,0.22,VWS V14.01,2013-09-08 03:15:00,
2013-09-07 23:20:00,65.2,61.2,29.97,ENE,59,7.0,9.0,87,0.00,,CLR,0.22,VWS V14.01,2013-09-08 03:20:00,
2013-09-07 23:25:00,65.0,60.4,29.97,East,83,4.0,7.0,85,0.00,,CLR,0.22,VWS V14.01,2013-09-08 03:25:00,
2013-09-07 23:30:00,64.7,59.8,29.97,ENE,73,4.0,7.0,84,0.00,,CLR,0.22,VWS V14.01,2013-09-08 03:30:00,
2013-09-07 23:35:00,64.6,59.3,29.97,East,82,8.0,11.0,83,0.00,,CLR,0.22,VWS V14.01,2013-09-08 03:35:00,
2013-09-07 23:40:00,64.5,58.9,29.98,ENE,73,4.0,5.0,82,0.00,,CLR,0.22,VWS V14.01,2013-09-08 03:40:00,
2013-09-07 23:45:00,64.3,58.7,29.98,East,81,5.0,8.0,82,0.00,,CLR,0.22,VWS V14.01,2013-09-08 03:45:00,
2013-09-07 23:50:00,64.1,58.2,29.98,ENE,74,12.0,13.0,81,0.00,,CLR,0.22,VWS V14.01,2013-09-08 03:50:00,
2013-09-07 23:56:00,64.0,57.7,29.99,ENE,65,8.0,10.0,80,0.00,,CLR,0.22,VWS V14.01,2013-09-08 03:56:00,